createdAt,value
2018-05-31T00:00:03.602Z,1008.18
2018-05-31T00:01:03.916Z,1008.16
2018-05-31T00:02:03.556Z,1008.16
2018-05-31T00:03:03.600Z,1008.16
2018-05-31T00:04:03.536Z,1008.12
2018-05-31T00:06:03.512Z,1008.09
2018-05-31T00:07:03.875Z,1008.11
2018-05-31T00:08:03.484Z,1008.09
2018-05-31T00:09:03.474Z,1008.08
2018-05-31T00:10:03.460Z,1008.12
2018-05-31T00:11:03.453Z,1008.11
2018-05-31T00:12:03.498Z,1008.09
2018-05-31T00:13:03.928Z,1008.09
2018-05-31T00:14:03.416Z,1008.08
2018-05-31T00:15:03.402Z,1008.11
2018-05-31T00:16:03.390Z,1008.09
2018-05-31T00:17:03.393Z,1008.10
2018-05-31T00:18:03.376Z,1008.13
2018-05-31T00:19:03.722Z,1008.11
2018-05-31T00:20:03.450Z,1008.10
2018-05-31T00:21:03.395Z,1008.08
2018-05-31T00:22:03.326Z,1008.08
2018-05-31T00:23:03.320Z,1008.09
2018-05-31T00:24:03.306Z,1008.08
2018-05-31T00:25:03.645Z,1008.08
2018-05-31T00:26:03.286Z,1008.10
2018-05-31T00:27:03.268Z,1008.09
2018-05-31T00:28:03.251Z,1008.11
2018-05-31T00:29:03.250Z,1008.05
2018-05-31T00:30:04.317Z,1008.12
2018-05-31T00:31:07.153Z,1008.11
2018-05-31T00:32:06.020Z,1008.11
2018-05-31T00:33:03.195Z,1008.11
2018-05-31T00:34:03.263Z,1008.11
2018-05-31T00:35:03.175Z,1008.06
2018-05-31T00:36:03.173Z,1008.04
2018-05-31T00:37:03.204Z,1008.03
2018-05-31T00:38:03.440Z,1008.02
2018-05-31T00:39:03.236Z,1008.02
2018-05-31T00:40:03.221Z,1007.97
2018-05-31T00:41:03.216Z,1007.93
2018-05-31T00:42:03.200Z,1007.94
2018-05-31T00:43:03.132Z,1007.94
2018-05-31T00:44:03.065Z,1007.94
2018-05-31T00:45:03.353Z,1007.91
2018-05-31T00:46:03.042Z,1007.93
2018-05-31T00:47:03.033Z,1007.96
2018-05-31T00:48:03.021Z,1008.01
2018-05-31T00:49:03.061Z,1007.96
2018-05-31T00:50:03.083Z,1007.97
2018-05-31T00:51:02.996Z,1007.96
2018-05-31T00:52:03.272Z,1007.97
2018-05-31T00:53:02.968Z,1007.96
2018-05-31T00:54:02.949Z,1007.93
2018-05-31T00:55:03.000Z,1007.95
2018-05-31T00:56:02.924Z,1007.94
2018-05-31T00:57:02.913Z,1007.92
2018-05-31T00:58:02.901Z,1007.92
2018-05-31T00:59:03.204Z,1007.92
2018-05-31T01:00:02.877Z,1007.90
2018-05-31T01:01:02.915Z,1007.88
2018-05-31T01:02:02.865Z,1007.89
2018-05-31T01:03:02.841Z,1007.86
2018-05-31T01:04:02.834Z,1007.89
2018-05-31T01:05:02.826Z,1007.89
2018-05-31T01:06:03.113Z,1007.90
2018-05-31T01:07:02.852Z,1007.90
2018-05-31T01:08:02.802Z,1007.89
2018-05-31T01:09:02.796Z,1007.87
2018-05-31T01:10:02.765Z,1007.86
2018-05-31T01:12:02.740Z,1007.84
2018-05-31T01:13:03.086Z,1007.83
2018-05-31T01:14:02.713Z,1007.86
2018-05-31T01:15:02.714Z,1007.87
2018-05-31T01:16:02.690Z,1007.82
2018-05-31T01:17:02.749Z,1007.84
2018-05-31T01:18:02.724Z,1007.86
2018-05-31T01:19:02.711Z,1007.85
2018-05-31T01:20:02.950Z,1007.87
2018-05-31T01:21:02.639Z,1007.84
2018-05-31T01:22:02.618Z,1007.88
2018-05-31T01:23:02.606Z,1007.89
2018-05-31T01:24:02.596Z,1007.91
2018-05-31T01:25:02.645Z,1007.91
2018-05-31T01:26:02.874Z,1007.91
2018-05-31T01:27:02.563Z,1007.98
2018-05-31T01:28:02.549Z,1007.94
2018-05-31T01:29:02.534Z,1007.99
2018-05-31T01:30:02.588Z,1008.00
2018-05-31T01:31:02.559Z,1008.02
2018-05-31T01:32:02.939Z,1008.04
2018-05-31T01:33:02.555Z,1008.06
2018-05-31T01:34:02.479Z,1008.05
2018-05-31T01:35:02.468Z,1008.06
2018-05-31T01:36:02.458Z,1008.05
2018-05-31T01:37:02.513Z,1008.07
2018-05-31T01:39:02.470Z,1008.06
2018-05-31T01:40:02.407Z,1008.09
2018-05-31T01:41:02.397Z,1008.06
2018-05-31T01:42:02.380Z,1008.08
2018-05-31T01:43:02.419Z,1008.11
2018-05-31T01:44:02.656Z,1008.10
2018-05-31T01:45:02.347Z,1008.11
2018-05-31T01:46:02.335Z,1008.12
2018-05-31T01:47:02.319Z,1008.14
2018-05-31T01:48:02.304Z,1008.16
2018-05-31T01:49:02.623Z,1008.16
2018-05-31T01:50:02.584Z,1008.14
2018-05-31T01:51:02.296Z,1008.14
2018-05-31T01:52:02.266Z,1008.15
2018-05-31T01:53:02.251Z,1008.14
2018-05-31T01:54:02.235Z,1008.13
2018-05-31T01:55:02.276Z,1008.11
2018-05-31T01:56:02.511Z,1008.12
2018-05-31T01:57:02.213Z,1008.15
2018-05-31T01:58:02.182Z,1008.13
2018-05-31T01:59:02.174Z,1008.16
2018-05-31T02:00:02.173Z,1008.14
2018-05-31T02:01:02.201Z,1008.17
2018-05-31T02:02:02.441Z,1008.11
2018-05-31T02:03:02.125Z,1008.11
2018-05-31T02:04:02.113Z,1008.09
2018-05-31T02:05:02.099Z,1008.05
2018-05-31T02:06:02.091Z,1008.04
2018-05-31T02:07:02.126Z,1008.01
2018-05-31T02:08:02.206Z,1008.02
2018-05-31T02:09:02.465Z,1008.04
2018-05-31T02:10:02.424Z,1008.05
2018-05-31T02:11:02.147Z,1008.05
2018-05-31T02:12:02.128Z,1008.10
2018-05-31T02:13:02.195Z,1008.11
2018-05-31T02:14:01.987Z,1008.10
2018-05-31T02:16:02.268Z,1008.05
2018-05-31T02:17:01.948Z,1008.03
2018-05-31T02:18:03.169Z,1008.00
2018-05-31T02:19:02.001Z,1007.96
2018-05-31T02:20:01.925Z,1007.93
2018-05-31T02:21:01.902Z,1007.95
2018-05-31T02:22:01.897Z,1007.95
2018-05-31T02:23:02.183Z,1007.95
2018-05-31T02:24:01.866Z,1007.98
2018-05-31T02:25:01.915Z,1007.99
2018-05-31T02:26:01.846Z,1008.03
2018-05-31T02:27:01.832Z,1008.04
2018-05-31T02:28:01.811Z,1008.04
2018-05-31T02:29:01.800Z,1008.04
2018-05-31T02:30:02.123Z,1008.05
2018-05-31T02:31:01.823Z,1008.04
2018-05-31T02:32:01.858Z,1008.04
2018-05-31T02:33:01.787Z,1008.02
2018-05-31T02:34:01.737Z,1008.02
2018-05-31T02:35:01.724Z,1007.97
2018-05-31T02:36:01.710Z,1007.94
2018-05-31T02:37:02.050Z,1007.95
2018-05-31T02:38:01.775Z,1007.94
2018-05-31T02:39:01.751Z,1007.93
2018-05-31T02:40:01.739Z,1007.95
2018-05-31T02:41:01.738Z,1007.98
2018-05-31T02:43:01.977Z,1007.99
2018-05-31T02:44:01.619Z,1008.03
2018-05-31T02:45:01.667Z,1008.02
2018-05-31T02:47:01.578Z,1008.00
2018-05-31T02:48:01.566Z,1007.99
2018-05-31T02:49:01.754Z,1007.99
2018-05-31T02:50:01.845Z,1007.95
2018-05-31T02:51:01.530Z,1007.99
2018-05-31T02:52:01.519Z,1008.01
2018-05-31T02:53:01.528Z,1008.04
2018-05-31T02:54:01.491Z,1008.03
2018-05-31T02:55:01.836Z,1008.02
2018-05-31T02:56:01.772Z,1007.99
2018-05-31T02:57:01.449Z,1008.02
2018-05-31T02:58:01.436Z,1008.00
2018-05-31T02:59:01.422Z,1007.97
2018-05-31T03:00:01.425Z,1007.96
2018-05-31T03:01:01.558Z,1007.93
2018-05-31T03:02:01.687Z,1007.94
2018-05-31T03:03:01.376Z,1007.93
2018-05-31T03:04:01.361Z,1007.91
2018-05-31T03:05:01.354Z,1007.91
2018-05-31T03:06:01.439Z,1007.90
2018-05-31T03:07:01.546Z,1007.88
2018-05-31T03:08:01.717Z,1007.89
2018-05-31T03:09:01.409Z,1007.85
2018-05-31T03:10:01.393Z,1007.88
2018-05-31T03:11:01.390Z,1007.92
2018-05-31T03:12:01.373Z,1007.87
2018-05-31T03:13:01.432Z,1007.88
2018-05-31T03:15:01.642Z,1007.85
2018-05-31T03:16:01.318Z,1007.83
2018-05-31T03:17:01.309Z,1007.87
2018-05-31T03:18:01.191Z,1007.88
2018-05-31T03:19:01.224Z,1007.91
2018-05-31T03:20:01.165Z,1007.93
2018-05-31T03:21:01.453Z,1007.95
2018-05-31T03:22:01.138Z,1007.96
2018-05-31T03:23:01.127Z,1008.01
2018-05-31T03:24:01.305Z,1008.04
2018-05-31T03:25:01.159Z,1008.04
2018-05-31T03:26:01.094Z,1008.00
2018-05-31T03:27:01.381Z,1008.00
2018-05-31T03:28:01.058Z,1008.04
2018-05-31T03:29:01.051Z,1008.04
2018-05-31T03:30:01.117Z,1008.02
2018-05-31T03:31:01.156Z,1008.04
2018-05-31T03:32:01.021Z,1008.06
2018-05-31T03:33:01.301Z,1008.01
2018-05-31T03:34:00.991Z,1008.04
2018-05-31T03:35:00.971Z,1008.02
2018-05-31T03:36:00.971Z,1008.01
2018-05-31T03:37:00.998Z,1008.01
2018-05-31T03:38:00.936Z,1008.01
2018-05-31T03:39:00.964Z,1008.00
2018-05-31T03:40:01.215Z,1008.07
2018-05-31T03:41:00.896Z,1008.03
2018-05-31T03:42:00.892Z,1008.01
2018-05-31T03:43:00.925Z,1008.04
2018-05-31T03:44:00.865Z,1008.05
2018-05-31T03:45:00.848Z,1008.08
2018-05-31T03:46:00.834Z,1008.10
2018-05-31T03:47:01.135Z,1008.05
2018-05-31T03:48:00.808Z,1008.05
2018-05-31T03:49:00.853Z,1008.09
2018-05-31T03:51:00.772Z,1008.08
2018-05-31T03:52:00.763Z,1008.06
2018-05-31T03:53:00.753Z,1008.06
2018-05-31T03:54:01.216Z,1008.11
2018-05-31T03:55:00.781Z,1008.08
2018-05-31T03:56:00.835Z,1008.09
2018-05-31T03:58:01.006Z,1008.05
2018-05-31T04:00:01.038Z,1008.06
2018-05-31T04:01:00.706Z,1008.03
2018-05-31T04:02:00.637Z,1008.09
2018-05-31T04:03:00.627Z,1008.06
2018-05-31T04:05:00.604Z,1008.03
2018-05-31T04:06:00.695Z,1008.04
2018-05-31T04:07:00.926Z,1008.02
2018-05-31T04:08:00.569Z,1008.02
2018-05-31T04:09:00.552Z,1008.00
2018-05-31T04:10:00.542Z,1008.02
2018-05-31T04:11:00.631Z,1008.05
2018-05-31T04:12:00.516Z,1008.08
2018-05-31T04:13:00.602Z,1008.05
2018-05-31T04:14:00.796Z,1008.11
2018-05-31T04:15:00.475Z,1008.13
2018-05-31T04:16:00.463Z,1008.12
2018-05-31T04:17:00.447Z,1008.17
2018-05-31T04:18:00.496Z,1008.13
2018-05-31T04:19:00.471Z,1008.14
2018-05-31T04:20:00.535Z,1008.15
2018-05-31T04:21:00.696Z,1008.15
2018-05-31T04:22:00.384Z,1008.08
2018-05-31T04:23:00.379Z,1008.13
2018-05-31T04:24:00.370Z,1008.12
2018-05-31T04:25:00.404Z,1008.14
2018-05-31T04:26:00.344Z,1008.13
2018-05-31T04:27:00.625Z,1008.13
2018-05-31T04:28:00.322Z,1008.11
2018-05-31T04:29:00.301Z,1008.08
2018-05-31T04:30:00.299Z,1008.09
2018-05-31T04:31:00.344Z,1008.12
2018-05-31T04:32:00.290Z,1008.11
2018-05-31T04:33:00.563Z,1008.12
2018-05-31T04:35:00.235Z,1008.11
2018-05-31T04:36:00.234Z,1008.14
2018-05-31T04:37:00.270Z,1008.17
2018-05-31T04:38:00.360Z,1008.18
2018-05-31T04:39:00.494Z,1008.21
2018-05-31T04:40:00.168Z,1008.21
2018-05-31T04:41:00.156Z,1008.21
2018-05-31T04:42:00.148Z,1008.23
2018-05-31T04:43:00.225Z,1008.21
2018-05-31T04:44:00.129Z,1008.22
2018-05-31T04:45:00.417Z,1008.24
2018-05-31T04:46:00.096Z,1008.25
2018-05-31T04:47:00.089Z,1008.30
2018-05-31T04:48:00.074Z,1008.28
2018-05-31T04:49:00.112Z,1008.28
2018-05-31T04:50:00.048Z,1008.29
2018-05-31T04:51:00.342Z,1008.32
2018-05-31T04:52:00.032Z,1008.34
2018-05-31T04:53:00.022Z,1008.30
2018-05-31T04:54:00.018Z,1008.33
2018-05-31T04:55:00.092Z,1008.35
2018-05-31T04:55:59.991Z,1008.34
2018-05-31T04:57:00.332Z,1008.32
2018-05-31T04:58:00.040Z,1008.32
2018-05-31T04:58:59.965Z,1008.32
2018-05-31T04:59:59.938Z,1008.36
2018-05-31T05:00:59.980Z,1008.33
2018-05-31T05:02:00.003Z,1008.36
2018-05-31T05:03:00.381Z,1008.34
2018-05-31T05:03:59.888Z,1008.38
2018-05-31T05:04:59.972Z,1008.36
2018-05-31T05:05:59.954Z,1008.33
2018-05-31T05:06:59.907Z,1008.40
2018-05-31T05:07:59.844Z,1008.36
2018-05-31T05:09:00.187Z,1008.40
2018-05-31T05:09:59.901Z,1008.37
2018-05-31T05:10:59.808Z,1008.42
2018-05-31T05:11:59.798Z,1008.40
2018-05-31T05:12:59.849Z,1008.40
2018-05-31T05:13:59.808Z,1008.32
2018-05-31T05:14:59.764Z,1008.33
2018-05-31T05:16:00.060Z,1008.35
2018-05-31T05:16:59.772Z,1008.34
2018-05-31T05:17:59.743Z,1008.39
2018-05-31T05:18:59.786Z,1008.39
2018-05-31T05:19:59.767Z,1008.41
2018-05-31T05:20:59.699Z,1008.39
2018-05-31T05:21:59.693Z,1008.42
2018-05-31T05:22:59.975Z,1008.43
2018-05-31T05:23:59.700Z,1008.41
2018-05-31T05:24:59.711Z,1008.41
2018-05-31T05:25:59.652Z,1008.42
2018-05-31T05:26:59.636Z,1008.43
2018-05-31T05:27:59.797Z,1008.45
2018-05-31T05:28:59.630Z,1008.45
2018-05-31T05:29:59.899Z,1008.48
2018-05-31T05:30:59.639Z,1008.48
2018-05-31T05:32:00.026Z,1008.44
2018-05-31T05:32:59.591Z,1008.42
2018-05-31T05:33:59.557Z,1008.43
2018-05-31T05:34:59.551Z,1008.40
2018-05-31T05:35:59.536Z,1008.39
2018-05-31T05:36:59.913Z,1008.36
2018-05-31T05:37:59.515Z,1008.41
2018-05-31T05:38:59.506Z,1008.40
2018-05-31T05:39:59.505Z,1008.39
2018-05-31T05:40:59.570Z,1008.41
2018-05-31T05:41:59.871Z,1008.41
2018-05-31T05:42:59.624Z,1008.42
2018-05-31T05:43:59.762Z,1008.42
2018-05-31T05:44:59.444Z,1008.41
2018-05-31T05:45:59.430Z,1008.43
2018-05-31T05:46:59.423Z,1008.46
2018-05-31T05:47:59.411Z,1008.48
2018-05-31T05:48:59.487Z,1008.48
2018-05-31T05:49:59.392Z,1008.50
2018-05-31T05:50:59.678Z,1008.50
2018-05-31T05:51:59.373Z,1008.52
2018-05-31T05:52:59.361Z,1008.55
2018-05-31T05:53:59.395Z,1008.52
2018-05-31T05:54:59.388Z,1008.58
2018-05-31T05:55:59.327Z,1008.54
2018-05-31T05:56:59.565Z,1008.59
2018-05-31T05:57:59.609Z,1008.57
2018-05-31T05:58:59.298Z,1008.57
2018-05-31T05:59:59.303Z,1008.55
2018-05-31T06:00:59.340Z,1008.59
2018-05-31T06:01:59.322Z,1008.57
2018-05-31T06:02:59.259Z,1008.59
2018-05-31T06:03:59.557Z,1008.58
2018-05-31T06:04:59.245Z,1008.61
2018-05-31T06:05:59.241Z,1008.61
2018-05-31T06:06:59.350Z,1008.59
2018-05-31T06:07:59.209Z,1008.61
2018-05-31T06:08:59.203Z,1008.62
2018-05-31T06:09:59.210Z,1008.64
2018-05-31T06:10:59.475Z,1008.60
2018-05-31T06:11:59.173Z,1008.62
2018-05-31T06:12:59.212Z,1008.67
2018-05-31T06:13:59.149Z,1008.64
2018-05-31T06:14:59.138Z,1008.66
2018-05-31T06:15:59.130Z,1008.69
2018-05-31T06:16:59.421Z,1008.65
2018-05-31T06:17:59.109Z,1008.65
2018-05-31T06:18:59.148Z,1008.67
2018-05-31T06:19:59.099Z,1008.64
2018-05-31T06:20:59.088Z,1008.67
2018-05-31T06:21:59.139Z,1008.68
2018-05-31T06:22:59.359Z,1008.64
2018-05-31T06:23:59.050Z,1008.67
2018-05-31T06:24:59.097Z,1008.66
2018-05-31T06:25:59.038Z,1008.65
2018-05-31T06:26:59.028Z,1008.62
2018-05-31T06:27:59.025Z,1008.70
2018-05-31T06:28:59.310Z,1008.67
2018-05-31T06:29:59.057Z,1008.66
2018-05-31T06:30:59.490Z,1008.68
2018-05-31T06:31:58.973Z,1008.70
2018-05-31T06:32:59.105Z,1008.71
2018-05-31T06:33:59.060Z,1008.73
2018-05-31T06:34:58.957Z,1008.76
2018-05-31T06:35:59.295Z,1008.74
2018-05-31T06:36:58.974Z,1008.77
2018-05-31T06:37:59.038Z,1008.74
2018-05-31T06:38:59.023Z,1008.76
2018-05-31T06:39:59.044Z,1008.79
2018-05-31T06:40:59.000Z,1008.79
2018-05-31T06:41:59.292Z,1008.78
2018-05-31T06:42:59.043Z,1008.77
2018-05-31T06:43:58.865Z,1008.79
2018-05-31T06:44:58.882Z,1008.80
2018-05-31T06:45:58.855Z,1008.78
2018-05-31T06:46:58.839Z,1008.83
2018-05-31T06:47:59.123Z,1008.85
2018-05-31T06:48:58.868Z,1008.85
2018-05-31T06:49:58.804Z,1008.83
2018-05-31T06:50:58.793Z,1008.84
2018-05-31T06:53:59.089Z,1008.85
2018-05-31T06:54:58.823Z,1008.84
2018-05-31T06:56:58.850Z,1008.80
2018-05-31T06:57:59.142Z,1008.81
2018-05-31T06:58:58.730Z,1008.83
2018-05-31T06:59:58.733Z,1008.82
2018-05-31T07:00:59.057Z,1008.81
2018-05-31T07:01:58.700Z,1008.83
2018-05-31T07:02:58.761Z,1008.83
2018-05-31T07:04:58.671Z,1008.85
2018-05-31T07:05:58.663Z,1008.83
2018-05-31T07:06:58.765Z,1008.81
2018-05-31T07:07:58.951Z,1008.79
2018-05-31T07:08:58.638Z,1008.81
2018-05-31T07:09:58.624Z,1008.81
2018-05-31T07:10:58.624Z,1008.79
2018-05-31T07:11:58.642Z,1008.82
2018-05-31T07:12:58.650Z,1008.84
2018-05-31T07:13:58.594Z,1008.87
2018-05-31T07:14:58.881Z,1008.88
2018-05-31T07:15:58.624Z,1008.88
2018-05-31T07:16:59.073Z,1008.88
2018-05-31T07:17:58.576Z,1008.90
2018-05-31T07:18:58.603Z,1008.88
2018-05-31T07:19:58.566Z,1008.87
2018-05-31T07:20:58.834Z,1008.87
2018-05-31T07:21:58.532Z,1008.92
2018-05-31T07:22:58.520Z,1008.96
2018-05-31T07:23:58.512Z,1008.98
2018-05-31T07:24:58.554Z,1009.00
2018-05-31T07:25:58.491Z,1008.98
2018-05-31T07:26:58.801Z,1009.02
2018-05-31T07:27:58.472Z,1009.10
2018-05-31T07:28:58.632Z,1009.06
2018-05-31T07:29:58.462Z,1009.11
2018-05-31T07:30:58.653Z,1009.12
2018-05-31T07:31:58.445Z,1009.13
2018-05-31T07:32:58.446Z,1009.15
2018-05-31T07:33:58.730Z,1009.17
2018-05-31T07:34:58.420Z,1009.27
2018-05-31T07:35:58.516Z,1009.34
2018-05-31T07:36:58.461Z,1009.35
2018-05-31T07:37:58.404Z,1009.46
2018-05-31T07:38:58.391Z,1009.47
2018-05-31T07:39:58.689Z,1009.57
2018-05-31T07:40:58.389Z,1009.63
2018-05-31T07:41:58.374Z,1009.73
2018-05-31T07:42:58.421Z,1009.88
2018-05-31T07:43:58.364Z,1010.96
2018-05-31T07:44:58.367Z,1013.14
2018-05-31T07:45:58.655Z,1014.79
2018-05-31T07:46:58.348Z,1015.58
2018-05-31T07:47:58.339Z,1015.65
2018-05-31T07:48:58.392Z,1015.32
2018-05-31T07:49:58.338Z,1015.35
2018-05-31T07:50:58.323Z,1016.23
2018-05-31T07:51:58.617Z,1016.69
2018-05-31T07:52:58.314Z,1016.83
2018-05-31T07:53:58.308Z,1016.83
2018-05-31T07:55:58.506Z,1016.57
2018-05-31T07:56:58.298Z,1017.28
2018-05-31T07:57:58.805Z,1017.92
2018-05-31T07:58:58.290Z,1018.16
2018-05-31T07:59:58.288Z,1017.83
2018-05-31T08:00:58.285Z,1017.10
2018-05-31T08:01:58.452Z,1016.70
2018-05-31T08:02:58.332Z,1017.51
2018-05-31T08:03:58.592Z,1017.57
2018-05-31T08:04:58.329Z,1017.41
2018-05-31T08:05:58.315Z,1017.37
2018-05-31T08:06:58.464Z,1016.78
2018-05-31T08:07:58.418Z,1016.47
2018-05-31T08:08:58.260Z,1016.43
2018-05-31T08:10:58.554Z,1016.11
2018-05-31T08:11:58.256Z,1016.06
2018-05-31T08:12:58.262Z,1016.29
2018-05-31T08:13:58.305Z,1016.44
2018-05-31T08:14:58.244Z,1016.50
2018-05-31T08:15:58.243Z,1016.50
2018-05-31T08:16:58.543Z,1016.26
2018-05-31T08:17:58.252Z,1016.05
2018-05-31T08:18:58.239Z,1015.80
2018-05-31T08:19:58.287Z,1015.64
2018-05-31T08:20:58.286Z,1015.53
2018-05-31T08:21:58.236Z,1015.32
2018-05-31T08:22:58.920Z,1015.03
2018-05-31T08:23:58.782Z,1014.69
2018-05-31T08:24:58.453Z,1014.48
2018-05-31T08:26:58.301Z,1014.08
2018-05-31T08:27:58.279Z,1013.83
2018-05-31T08:28:58.227Z,1013.62
2018-05-31T08:29:58.231Z,1013.44
2018-05-31T08:30:58.538Z,1013.33
2018-05-31T08:31:58.243Z,1013.26
2018-05-31T08:32:58.293Z,1013.01
2018-05-31T08:33:58.398Z,1012.82
2018-05-31T08:34:58.525Z,1012.72
2018-05-31T08:35:58.436Z,1012.73
2018-05-31T08:36:58.543Z,1012.67
2018-05-31T08:37:58.650Z,1012.53
2018-05-31T08:38:58.588Z,1012.36
2018-05-31T08:39:58.574Z,1012.22
2018-05-31T08:40:58.511Z,1012.14
2018-05-31T08:41:58.238Z,1012.14
2018-05-31T08:42:58.233Z,1012.04
2018-05-31T08:43:58.535Z,1011.96
2018-05-31T08:44:58.282Z,1011.98
2018-05-31T08:45:58.241Z,1011.88
2018-05-31T08:46:58.245Z,1011.85
2018-05-31T08:47:58.254Z,1011.74
2018-05-31T08:48:58.366Z,1011.73
2018-05-31T08:49:58.715Z,1011.67
2018-05-31T08:50:58.452Z,1011.67
2018-05-31T08:51:58.533Z,1011.66
2018-05-31T08:52:58.243Z,1011.60
2018-05-31T08:53:58.257Z,1011.55
2018-05-31T08:54:58.451Z,1011.43
2018-05-31T08:55:58.418Z,1011.42
2018-05-31T08:57:00.704Z,1011.33
2018-05-31T08:57:58.369Z,1011.33
2018-05-31T08:58:58.355Z,1011.30
2018-05-31T08:59:58.438Z,1011.24
2018-05-31T09:00:58.420Z,1011.18
2018-05-31T09:01:58.354Z,1011.19
2018-05-31T09:02:58.459Z,1011.18
2018-05-31T09:03:58.572Z,1011.18
2018-05-31T09:04:58.264Z,1011.17
2018-05-31T09:05:58.307Z,1011.11
2018-05-31T09:06:58.269Z,1011.08
2018-05-31T09:07:58.615Z,1011.07
2018-05-31T09:08:58.328Z,1011.07
2018-05-31T09:09:59.000Z,1011.02
2018-05-31T09:10:58.628Z,1011.00
2018-05-31T09:11:58.287Z,1011.01
2018-05-31T09:12:58.465Z,1010.99
2018-05-31T09:13:59.241Z,1010.96
2018-05-31T09:14:58.395Z,1010.92
2018-05-31T09:16:58.300Z,1010.93
2018-05-31T09:17:58.626Z,1010.96
2018-05-31T09:18:58.303Z,1011.02
2018-05-31T09:19:58.304Z,1010.97
2018-05-31T09:20:58.361Z,1010.94
2018-05-31T09:21:58.324Z,1010.98
2018-05-31T09:22:58.313Z,1011.05
2018-05-31T09:23:58.315Z,1011.12
2018-05-31T09:24:58.620Z,1011.12
2018-05-31T09:25:58.327Z,1011.12
2018-05-31T09:26:58.375Z,1011.20
2018-05-31T09:27:58.329Z,1011.20
2018-05-31T09:28:58.543Z,1011.16
2018-05-31T09:29:58.340Z,1011.15
2018-05-31T09:30:58.640Z,1011.17
2018-05-31T09:31:58.347Z,1011.27
2018-05-31T09:32:58.411Z,1011.25
2018-05-31T09:33:58.351Z,1011.25
2018-05-31T09:34:58.361Z,1011.28
2018-05-31T09:35:58.359Z,1011.33
2018-05-31T09:36:58.660Z,1011.48
2018-05-31T09:37:58.374Z,1011.57
2018-05-31T09:38:58.420Z,1011.64
2018-05-31T09:39:58.636Z,1011.69
2018-05-31T09:40:58.575Z,1011.80
2018-05-31T09:41:58.589Z,1011.92
2018-05-31T09:42:58.685Z,1011.92
2018-05-31T09:43:58.393Z,1011.81
2018-05-31T09:44:58.453Z,1011.69
2018-05-31T09:45:58.398Z,1011.58
2018-05-31T09:46:58.405Z,1011.64
2018-05-31T09:47:58.408Z,1011.78
2018-05-31T09:48:58.771Z,1011.96
2018-05-31T09:49:58.425Z,1011.97
2018-05-31T09:50:58.593Z,1011.96
2018-05-31T09:52:58.432Z,1012.39
2018-05-31T09:53:58.435Z,1012.52
2018-05-31T09:54:58.740Z,1012.57
2018-05-31T09:55:58.466Z,1012.57
2018-05-31T09:56:58.500Z,1012.44
2018-05-31T09:57:58.460Z,1012.38
2018-05-31T09:58:58.476Z,1012.48
2018-05-31T09:59:58.612Z,1012.44
2018-05-31T10:00:58.785Z,1012.39
2018-05-31T10:01:58.472Z,1012.40
2018-05-31T10:02:58.534Z,1012.32
2018-05-31T10:03:58.981Z,1012.27
2018-05-31T10:04:58.494Z,1012.27
2018-05-31T10:05:58.494Z,1012.25
2018-05-31T10:06:59.123Z,1012.10
2018-05-31T10:07:58.563Z,1011.89
2018-05-31T10:08:58.617Z,1011.83
2018-05-31T10:09:58.531Z,1011.71
2018-05-31T10:10:58.535Z,1011.68
2018-05-31T10:11:58.523Z,1011.68
2018-05-31T10:12:58.828Z,1011.57
2018-05-31T10:13:58.543Z,1011.47
2018-05-31T10:14:58.593Z,1011.39
2018-05-31T10:15:58.549Z,1011.32
2018-05-31T10:16:58.551Z,1011.23
2018-05-31T10:17:58.564Z,1011.20
2018-05-31T10:18:58.950Z,1011.14
2018-05-31T10:19:58.569Z,1010.97
2018-05-31T10:20:58.701Z,1010.76
2018-05-31T10:21:58.577Z,1010.79
2018-05-31T10:22:58.590Z,1010.78
2018-05-31T10:23:58.612Z,1010.70
2018-05-31T10:24:58.668Z,1010.57
2018-05-31T10:25:58.907Z,1010.50
2018-05-31T10:26:58.663Z,1010.41
2018-05-31T10:28:01.686Z,1010.33
2018-05-31T10:28:58.663Z,1010.20
2018-05-31T10:29:58.632Z,1010.07
2018-05-31T10:30:58.631Z,1010.08
2018-05-31T10:31:58.642Z,1010.05
2018-05-31T10:32:59.052Z,1009.95
2018-05-31T10:33:58.653Z,1009.98
2018-05-31T10:34:58.652Z,1009.96
2018-05-31T10:35:58.664Z,1009.99
2018-05-31T10:36:58.668Z,1009.97
2018-05-31T10:37:58.677Z,1009.80
2018-05-31T10:38:59.032Z,1009.92
2018-05-31T10:39:58.691Z,1009.89
2018-05-31T10:40:58.696Z,1009.87
2018-05-31T10:41:58.710Z,1009.84
2018-05-31T10:42:58.706Z,1009.85
2018-05-31T10:43:58.731Z,1009.80
2018-05-31T10:44:58.772Z,1009.89
2018-05-31T10:45:59.022Z,1009.95
2018-05-31T10:46:58.728Z,1010.07
2018-05-31T10:47:58.736Z,1009.98
2018-05-31T10:48:58.740Z,1009.70
2018-05-31T10:49:58.749Z,1010.17
2018-05-31T10:50:58.821Z,1010.23
2018-05-31T10:51:59.126Z,1010.22
2018-05-31T10:52:58.832Z,1009.13
2018-05-31T10:53:58.778Z,1009.20
2018-05-31T10:54:58.793Z,1010.27
2018-05-31T10:55:58.795Z,1009.21
2018-05-31T10:56:58.861Z,1009.16
2018-05-31T10:57:59.117Z,1010.24
2018-05-31T10:58:58.849Z,1010.27
2018-05-31T10:59:58.867Z,1009.11
2018-05-31T11:00:58.828Z,1009.16
2018-05-31T11:01:58.835Z,1009.94
2018-05-31T11:02:58.876Z,1010.00
2018-05-31T11:03:59.140Z,1009.94
2018-05-31T11:04:58.836Z,1009.36
2018-05-31T11:05:58.943Z,1009.74
2018-05-31T11:06:58.855Z,1009.02
2018-05-31T11:07:58.855Z,1008.96
2018-05-31T11:08:58.908Z,1009.63
2018-05-31T11:09:59.169Z,1009.75
2018-05-31T11:10:58.863Z,1009.58
2018-05-31T11:11:58.879Z,1009.55
2018-05-31T11:12:58.881Z,1009.55
2018-05-31T11:13:58.888Z,1009.79
2018-05-31T11:14:58.996Z,1009.14
2018-05-31T11:16:59.193Z,1009.38
2018-05-31T11:17:59.008Z,1008.95
2018-05-31T11:18:59.261Z,1008.97
2018-05-31T11:19:59.111Z,1009.03
2018-05-31T11:20:59.820Z,1010.11
2018-05-31T11:21:59.196Z,1010.10
2018-05-31T11:22:59.354Z,1010.14
2018-05-31T11:23:59.154Z,1009.09
2018-05-31T11:24:58.921Z,1010.14
2018-05-31T11:25:58.940Z,1010.07
2018-05-31T11:26:58.981Z,1009.93
2018-05-31T11:27:59.409Z,1009.90
2018-05-31T11:28:59.645Z,1009.73
2018-05-31T11:29:59.401Z,1009.77
2018-05-31T11:30:59.782Z,1009.82
2018-05-31T11:31:59.295Z,1009.88
2018-05-31T11:32:59.005Z,1009.85
2018-05-31T11:33:58.958Z,1009.87
2018-05-31T11:34:59.267Z,1009.98
2018-05-31T11:35:58.983Z,1009.98
2018-05-31T11:36:58.971Z,1010.03
2018-05-31T11:37:58.978Z,1010.03
2018-05-31T11:38:59.028Z,1010.03
2018-05-31T11:39:58.989Z,1010.01
2018-05-31T11:40:58.996Z,1008.71
2018-05-31T11:41:59.017Z,1008.79
2018-05-31T11:42:59.002Z,1010.06
2018-05-31T11:43:59.028Z,1010.01
2018-05-31T11:44:59.068Z,1010.03
2018-05-31T11:45:59.320Z,1010.05
2018-05-31T11:46:59.024Z,1008.66
2018-05-31T11:47:59.033Z,1008.67
2018-05-31T11:48:59.047Z,1009.77
2018-05-31T11:50:59.753Z,1009.95
2018-05-31T11:51:59.125Z,1010.00
2018-05-31T11:52:59.369Z,1010.06
2018-05-31T11:53:59.150Z,1010.08
2018-05-31T11:54:59.079Z,1010.00
2018-05-31T11:55:59.102Z,1010.01
2018-05-31T11:56:59.133Z,1009.92
2018-05-31T11:57:59.095Z,1009.95
2018-05-31T11:58:59.393Z,1009.90
2018-05-31T11:59:59.099Z,1009.92
2018-05-31T12:00:59.104Z,1009.80
2018-05-31T12:01:59.111Z,1009.66
2018-05-31T12:02:59.364Z,1009.66
2018-05-31T12:03:59.270Z,1009.63
2018-05-31T12:04:59.450Z,1009.56
2018-05-31T12:05:59.152Z,1009.61
2018-05-31T12:06:59.148Z,1008.45
2018-05-31T12:07:59.178Z,1008.49
2018-05-31T12:08:59.349Z,1008.43
2018-05-31T12:09:59.364Z,1008.49
2018-05-31T12:10:59.523Z,1008.49
2018-05-31T12:11:59.194Z,1009.48
2018-05-31T12:12:59.195Z,1009.40
2018-05-31T12:13:59.201Z,1009.39
2018-05-31T12:14:59.771Z,1009.45
2018-05-31T12:15:59.227Z,1009.45
2018-05-31T12:16:59.509Z,1009.19
2018-05-31T12:17:59.316Z,1008.41
2018-05-31T12:18:59.507Z,1008.39
2018-05-31T12:19:59.230Z,1008.47
2018-05-31T12:20:59.314Z,1008.40
2018-05-31T12:21:59.355Z,1009.28
2018-05-31T12:22:59.302Z,1009.21
2018-05-31T12:23:59.537Z,1009.11
2018-05-31T12:24:59.402Z,1009.21
2018-05-31T12:25:59.293Z,1009.18
2018-05-31T12:26:59.434Z,1009.08
2018-05-31T12:27:59.385Z,1008.41